sensor_id;sensor_type;location;lat;lon;timestamp;temperature;humidity
64869;DHT22;51349;52.424;10.840;2022-07-23T00:04:35;15.20;99.90
64869;DHT22;51349;52.424;10.840;2022-07-23T00:09:36;15.10;99.90
64869;DHT22;51349;52.424;10.840;2022-07-23T00:14:36;15.20;99.90
64869;DHT22;51349;52.424;10.840;2022-07-23T00:19:37;15.20;99.90
64869;DHT22;51349;52.424;10.840;2022-07-23T00:24:38;15.20;99.90
64869;DHT22;51349;52.424;10.840;2022-07-23T00:29:38;15.00;99.90
64869;DHT22;51349;52.424;10.840;2022-07-23T00:34:39;15.00;99.90
64869;DHT22;51349;52.424;10.840;2022-07-23T00:39:39;14.90;99.90
64869;DHT22;51349;52.424;10.840;2022-07-23T00:44:40;14.80;99.90
64869;DHT22;51349;52.424;10.840;2022-07-23T00:49:41;14.70;99.90
64869;DHT22;51349;52.424;10.840;2022-07-23T00:54:41;14.80;99.90
64869;DHT22;51349;52.424;10.840;2022-07-23T00:59:42;14.80;99.90
64869;DHT22;51349;52.424;10.840;2022-07-23T01:04:43;14.80;99.90
64869;DHT22;51349;52.424;10.840;2022-07-23T01:09:45;14.90;99.90
64869;DHT22;51349;52.424;10.840;2022-07-23T01:14:56;15.00;99.90
64869;DHT22;51349;52.424;10.840;2022-07-23T01:19:57;15.00;99.90
64869;DHT22;51349;52.424;10.840;2022-07-23T01:24:58;15.00;99.90
64869;DHT22;51349;52.424;10.840;2022-07-23T01:30:01;15.00;99.90
64869;DHT22;51349;52.424;10.840;2022-07-23T01:35:03;14.90;99.90
64869;DHT22;51349;52.424;10.840;2022-07-23T01:40:04;14.90;99.90
64869;DHT22;51349;52.424;10.840;2022-07-23T01:45:05;14.90;99.90
64869;DHT22;51349;52.424;10.840;2022-07-23T01:50:07;14.80;99.90
64869;DHT22;51349;52.424;10.840;2022-07-23T01:55:08;14.80;99.90
64869;DHT22;51349;52.424;10.840;2022-07-23T02:00:09;14.80;99.90
64869;DHT22;51349;52.424;10.840;2022-07-23T02:05:10;14.60;99.90
64869;DHT22;51349;52.424;10.840;2022-07-23T02:10:12;14.70;99.90
64869;DHT22;51349;52.424;10.840;2022-07-23T02:15:13;14.70;99.90
64869;DHT22;51349;52.424;10.840;2022-07-23T02:20:14;14.60;99.90
64869;DHT22;51349;52.424;10.840;2022-07-23T02:25:14;14.50;99.90
64869;DHT22;51349;52.424;10.840;2022-07-23T02:30:15;14.50;99.90
64869;DHT22;51349;52.424;10.840;2022-07-23T02:35:16;14.40;99.90
64869;DHT22;51349;52.424;10.840;2022-07-23T02:40:17;14.50;99.90
64869;DHT22;51349;52.424;10.840;2022-07-23T02:45:18;14.40;99.90
64869;DHT22;51349;52.424;10.840;2022-07-23T02:50:19;14.40;99.90
64869;DHT22;51349;52.424;10.840;2022-07-23T02:55:19;14.30;99.90
64869;DHT22;51349;52.424;10.840;2022-07-23T03:00:20;14.30;99.90
64869;DHT22;51349;52.424;10.840;2022-07-23T03:05:21;14.30;99.90
64869;DHT22;51349;52.424;10.840;2022-07-23T03:10:21;14.30;99.90
64869;DHT22;51349;52.424;10.840;2022-07-23T03:15:22;14.20;99.90
64869;DHT22;51349;52.424;10.840;2022-07-23T03:20:22;14.20;99.90
64869;DHT22;51349;52.424;10.840;2022-07-23T03:25:23;14.20;99.90
64869;DHT22;51349;52.424;10.840;2022-07-23T03:30:24;14.20;99.90
64869;DHT22;51349;52.424;10.840;2022-07-23T03:35:25;14.10;99.90
64869;DHT22;51349;52.424;10.840;2022-07-23T03:40:25;14.10;99.90
64869;DHT22;51349;52.424;10.840;2022-07-23T03:45:26;14.10;99.90
64869;DHT22;51349;52.424;10.840;2022-07-23T03:50:27;14.10;99.90
64869;DHT22;51349;52.424;10.840;2022-07-23T03:55:27;14.20;99.90
64869;DHT22;51349;52.424;10.840;2022-07-23T04:00:28;14.20;99.90
64869;DHT22;51349;52.424;10.840;2022-07-23T04:05:29;14.30;99.90
64869;DHT22;51349;52.424;10.840;2022-07-23T04:10:29;14.40;99.90
64869;DHT22;51349;52.424;10.840;2022-07-23T04:15:30;14.40;99.90
64869;DHT22;51349;52.424;10.840;2022-07-23T04:20:30;14.50;99.90
64869;DHT22;51349;52.424;10.840;2022-07-23T04:25:31;14.50;99.90
64869;DHT22;51349;52.424;10.840;2022-07-23T04:30:31;14.50;99.90
64869;DHT22;51349;52.424;10.840;2022-07-23T04:35:33;14.60;99.90
64869;DHT22;51349;52.424;10.840;2022-07-23T04:40:34;14.60;99.90
64869;DHT22;51349;52.424;10.840;2022-07-23T04:45:35;14.60;99.90
64869;DHT22;51349;52.424;10.840;2022-07-23T04:50:35;14.60;99.90
64869;DHT22;51349;52.424;10.840;2022-07-23T04:55:36;14.60;99.90
64869;DHT22;51349;52.424;10.840;2022-07-23T05:00:37;14.70;99.90
64869;DHT22;51349;52.424;10.840;2022-07-23T05:05:37;14.70;99.90
64869;DHT22;51349;52.424;10.840;2022-07-23T05:10:38;14.70;99.90
64869;DHT22;51349;52.424;10.840;2022-07-23T05:15:39;14.80;99.90
64869;DHT22;51349;52.424;10.840;2022-07-23T05:20:39;15.00;99.90
64869;DHT22;51349;52.424;10.840;2022-07-23T05:25:40;15.10;99.90
64869;DHT22;51349;52.424;10.840;2022-07-23T05:30:40;15.20;99.90
64869;DHT22;51349;52.424;10.840;2022-07-23T05:35:41;15.40;99.90
64869;DHT22;51349;52.424;10.840;2022-07-23T05:40:42;15.30;99.90
64869;DHT22;51349;52.424;10.840;2022-07-23T05:45:42;15.40;99.90
64869;DHT22;51349;52.424;10.840;2022-07-23T05:50:43;15.50;99.90
64869;DHT22;51349;52.424;10.840;2022-07-23T05:55:44;15.70;99.90
64869;DHT22;51349;52.424;10.840;2022-07-23T06:00:44;15.80;99.90
64869;DHT22;51349;52.424;10.840;2022-07-23T06:05:45;15.60;99.90
64869;DHT22;51349;52.424;10.840;2022-07-23T06:10:46;15.90;99.90
64869;DHT22;51349;52.424;10.840;2022-07-23T06:15:47;15.90;99.90
64869;DHT22;51349;52.424;10.840;2022-07-23T06:20:47;15.90;99.90
64869;DHT22;51349;52.424;10.840;2022-07-23T06:25:48;16.10;99.90
64869;DHT22;51349;52.424;10.840;2022-07-23T06:30:48;16.00;99.90
64869;DHT22;51349;52.424;10.840;2022-07-23T06:35:49;16.40;99.90
64869;DHT22;51349;52.424;10.840;2022-07-23T06:40:50;16.60;99.90
64869;DHT22;51349;52.424;10.840;2022-07-23T06:45:50;16.70;99.90
64869;DHT22;51349;52.424;10.840;2022-07-23T06:50:51;16.90;99.90
64869;DHT22;51349;52.424;10.840;2022-07-23T06:55:52;17.20;99.90
64869;DHT22;51349;52.424;10.840;2022-07-23T07:00:53;17.40;99.90
64869;DHT22;51349;52.424;10.840;2022-07-23T07:05:54;17.50;99.90
64869;DHT22;51349;52.424;10.840;2022-07-23T07:10:54;17.50;99.90
64869;DHT22;51349;52.424;10.840;2022-07-23T07:15:55;17.80;99.90
64869;DHT22;51349;52.424;10.840;2022-07-23T07:20:57;18.30;99.90
64869;DHT22;51349;52.424;10.840;2022-07-23T07:25:57;18.50;99.90
64869;DHT22;51349;52.424;10.840;2022-07-23T07:30:58;19.10;99.90
64869;DHT22;51349;52.424;10.840;2022-07-23T07:35:59;19.20;99.90
64869;DHT22;51349;52.424;10.840;2022-07-23T07:41:01;19.90;99.90
64869;DHT22;51349;52.424;10.840;2022-07-23T07:46:03;19.80;99.90
64869;DHT22;51349;52.424;10.840;2022-07-23T07:51:04;20.40;99.90
64869;DHT22;51349;52.424;10.840;2022-07-23T07:56:05;20.50;99.90
64869;DHT22;51349;52.424;10.840;2022-07-23T08:01:06;21.40;99.90
64869;DHT22;51349;52.424;10.840;2022-07-23T08:06:07;21.20;99.90
64869;DHT22;51349;52.424;10.840;2022-07-23T08:11:07;21.60;99.90
64869;DHT22;51349;52.424;10.840;2022-07-23T08:16:08;21.10;99.90
64869;DHT22;51349;52.424;10.840;2022-07-23T08:21:09;21.50;99.40
64869;DHT22;51349;52.424;10.840;2022-07-23T08:26:09;21.70;98.20
64869;DHT22;51349;52.424;10.840;2022-07-23T08:31:10;23.40;99.00
64869;DHT22;51349;52.424;10.840;2022-07-23T08:36:12;24.10;96.90
64869;DHT22;51349;52.424;10.840;2022-07-23T08:41:12;22.20;96.20
64869;DHT22;51349;52.424;10.840;2022-07-23T08:46:13;22.40;95.30
64869;DHT22;51349;52.424;10.840;2022-07-23T08:51:14;21.50;96.80
64869;DHT22;51349;52.424;10.840;2022-07-23T08:56:15;22.40;96.50
64869;DHT22;51349;52.424;10.840;2022-07-23T09:01:15;23.40;95.20
64869;DHT22;51349;52.424;10.840;2022-07-23T09:06:16;23.30;94.80
64869;DHT22;51349;52.424;10.840;2022-07-23T09:11:17;23.20;93.80
64869;DHT22;51349;52.424;10.840;2022-07-23T09:16:32;23.80;94.40
64869;DHT22;51349;52.424;10.840;2022-07-23T09:21:36;23.80;93.80
64869;DHT22;51349;52.424;10.840;2022-07-23T09:26:48;22.70;93.30
64869;DHT22;51349;52.424;10.840;2022-07-23T09:31:58;23.90;93.30
64869;DHT22;51349;52.424;10.840;2022-07-23T09:37:10;22.40;93.60
64869;DHT22;51349;52.424;10.840;2022-07-23T09:42:21;22.70;92.10
64869;DHT22;51349;52.424;10.840;2022-07-23T09:47:24;23.50;91.40
64869;DHT22;51349;52.424;10.840;2022-07-23T09:52:30;23.80;89.20
64869;DHT22;51349;52.424;10.840;2022-07-23T09:57:32;23.90;90.40
64869;DHT22;51349;52.424;10.840;2022-07-23T10:02:33;23.70;92.00
64869;DHT22;51349;52.424;10.840;2022-07-23T10:07:37;25.40;90.30
64869;DHT22;51349;52.424;10.840;2022-07-23T10:12:39;25.00;90.70
64869;DHT22;51349;52.424;10.840;2022-07-23T10:17:52;24.70;89.70
64869;DHT22;51349;52.424;10.840;2022-07-23T10:38:47;24.90;82.80
64869;DHT22;51349;52.424;10.840;2022-07-23T10:44:23;25.10;82.90
64869;DHT22;51349;52.424;10.840;2022-07-23T10:49:30;25.40;81.00
64869;DHT22;51349;52.424;10.840;2022-07-23T10:54:31;25.90;80.90
64869;DHT22;51349;52.424;10.840;2022-07-23T11:05:19;24.90;80.20
64869;DHT22;51349;52.424;10.840;2022-07-23T11:32:01;24.00;78.30
64869;DHT22;51349;52.424;10.840;2022-07-23T11:37:05;24.40;80.50
64869;DHT22;51349;52.424;10.840;2022-07-23T11:42:07;24.40;80.20
64869;DHT22;51349;52.424;10.840;2022-07-23T11:47:09;24.10;80.10
64869;DHT22;51349;52.424;10.840;2022-07-23T11:52:14;23.60;79.30
64869;DHT22;51349;52.424;10.840;2022-07-23T11:57:15;24.10;80.70
64869;DHT22;51349;52.424;10.840;2022-07-23T12:02:16;24.00;78.40
64869;DHT22;51349;52.424;10.840;2022-07-23T12:07:30;24.30;82.20
64869;DHT22;51349;52.424;10.840;2022-07-23T12:12:38;24.30;84.60
64869;DHT22;51349;52.424;10.840;2022-07-23T12:17:43;24.80;79.20
64869;DHT22;51349;52.424;10.840;2022-07-23T12:22:46;24.60;78.40
64869;DHT22;51349;52.424;10.840;2022-07-23T12:33:03;24.50;78.60
64869;DHT22;51349;52.424;10.840;2022-07-23T12:38:07;24.70;78.70
64869;DHT22;51349;52.424;10.840;2022-07-23T12:43:10;24.90;80.80
64869;DHT22;51349;52.424;10.840;2022-07-23T12:48:26;25.30;79.80
64869;DHT22;51349;52.424;10.840;2022-07-23T12:54:10;25.40;78.70
64869;DHT22;51349;52.424;10.840;2022-07-23T12:59:13;25.00;76.40
64869;DHT22;51349;52.424;10.840;2022-07-23T13:04:21;25.00;78.20
64869;DHT22;51349;52.424;10.840;2022-07-23T13:09:25;24.60;78.70
64869;DHT22;51349;52.424;10.840;2022-07-23T13:14:27;25.00;76.90
64869;DHT22;51349;52.424;10.840;2022-07-23T13:19:28;25.40;76.60
64869;DHT22;51349;52.424;10.840;2022-07-23T13:24:28;24.90;76.10
64869;DHT22;51349;52.424;10.840;2022-07-23T13:29:29;24.50;75.60
64869;DHT22;51349;52.424;10.840;2022-07-23T13:34:29;24.30;76.10
64869;DHT22;51349;52.424;10.840;2022-07-23T13:39:30;24.40;76.60
64869;DHT22;51349;52.424;10.840;2022-07-23T13:44:30;24.90;75.90
64869;DHT22;51349;52.424;10.840;2022-07-23T13:49:31;25.00;74.50
64869;DHT22;51349;52.424;10.840;2022-07-23T13:54:35;24.80;73.90
64869;DHT22;51349;52.424;10.840;2022-07-23T13:59:36;24.50;72.70
64869;DHT22;51349;52.424;10.840;2022-07-23T14:04:37;24.30;74.00
64869;DHT22;51349;52.424;10.840;2022-07-23T14:09:38;24.80;72.70
64869;DHT22;51349;52.424;10.840;2022-07-23T14:14:39;24.80;73.90
64869;DHT22;51349;52.424;10.840;2022-07-23T14:19:40;24.80;74.60
64869;DHT22;51349;52.424;10.840;2022-07-23T14:24:40;24.50;71.40
64869;DHT22;51349;52.424;10.840;2022-07-23T14:29:41;24.40;71.70
64869;DHT22;51349;52.424;10.840;2022-07-23T14:34:42;24.80;73.90
64869;DHT22;51349;52.424;10.840;2022-07-23T14:39:43;24.80;72.60
64869;DHT22;51349;52.424;10.840;2022-07-23T14:44:44;24.70;74.20
64869;DHT22;51349;52.424;10.840;2022-07-23T14:49:46;24.90;71.20
64869;DHT22;51349;52.424;10.840;2022-07-23T14:54:50;24.90;73.80
64869;DHT22;51349;52.424;10.840;2022-07-23T14:59:51;24.80;74.60
64869;DHT22;51349;52.424;10.840;2022-07-23T15:04:52;25.20;73.60
64869;DHT22;51349;52.424;10.840;2022-07-23T15:09:53;24.90;72.30
64869;DHT22;51349;52.424;10.840;2022-07-23T15:14:53;24.70;69.10
64869;DHT22;51349;52.424;10.840;2022-07-23T15:19:55;24.90;73.40
64869;DHT22;51349;52.424;10.840;2022-07-23T15:24:56;25.10;73.90
64869;DHT22;51349;52.424;10.840;2022-07-23T15:29:57;25.30;73.90
64869;DHT22;51349;52.424;10.840;2022-07-23T15:34:58;24.80;72.10
64869;DHT22;51349;52.424;10.840;2022-07-23T15:39:58;25.30;71.80
64869;DHT22;51349;52.424;10.840;2022-07-23T15:44:59;24.60;74.30
64869;DHT22;51349;52.424;10.840;2022-07-23T15:50:00;24.80;72.60
64869;DHT22;51349;52.424;10.840;2022-07-23T15:55:01;25.00;73.40
64869;DHT22;51349;52.424;10.840;2022-07-23T16:00:05;25.60;70.70
64869;DHT22;51349;52.424;10.840;2022-07-23T16:05:06;24.80;70.00
64869;DHT22;51349;52.424;10.840;2022-07-23T16:10:07;24.80;71.50
64869;DHT22;51349;52.424;10.840;2022-07-23T16:15:10;24.50;72.50
64869;DHT22;51349;52.424;10.840;2022-07-23T16:20:11;25.10;71.80
64869;DHT22;51349;52.424;10.840;2022-07-23T16:25:12;24.80;70.00
64869;DHT22;51349;52.424;10.840;2022-07-23T16:30:13;25.10;72.00
64869;DHT22;51349;52.424;10.840;2022-07-23T16:35:14;24.80;69.20
64869;DHT22;51349;52.424;10.840;2022-07-23T16:40:15;25.00;68.90
64869;DHT22;51349;52.424;10.840;2022-07-23T16:45:15;25.70;69.60
64869;DHT22;51349;52.424;10.840;2022-07-23T16:50:16;25.10;68.80
64869;DHT22;51349;52.424;10.840;2022-07-23T16:55:17;24.50;68.80
64869;DHT22;51349;52.424;10.840;2022-07-23T17:00:18;24.20;71.00
64869;DHT22;51349;52.424;10.840;2022-07-23T17:05:18;25.10;70.20
64869;DHT22;51349;52.424;10.840;2022-07-23T17:10:20;24.80;70.90
64869;DHT22;51349;52.424;10.840;2022-07-23T17:15:21;25.00;69.20
64869;DHT22;51349;52.424;10.840;2022-07-23T17:20:22;24.30;69.30
64869;DHT22;51349;52.424;10.840;2022-07-23T17:25:26;24.40;71.20
64869;DHT22;51349;52.424;10.840;2022-07-23T17:30:27;24.30;71.40
64869;DHT22;51349;52.424;10.840;2022-07-23T17:35:27;24.30;69.60
64869;DHT22;51349;52.424;10.840;2022-07-23T17:40:30;24.00;70.50
64869;DHT22;51349;52.424;10.840;2022-07-23T17:45:34;24.60;71.50
64869;DHT22;51349;52.424;10.840;2022-07-23T17:50:35;24.50;70.10
64869;DHT22;51349;52.424;10.840;2022-07-23T17:55:36;23.90;70.70
64869;DHT22;51349;52.424;10.840;2022-07-23T18:00:37;24.00;72.10
64869;DHT22;51349;52.424;10.840;2022-07-23T18:05:38;23.90;72.60
64869;DHT22;51349;52.424;10.840;2022-07-23T18:10:39;23.70;71.80
64869;DHT22;51349;52.424;10.840;2022-07-23T18:15:40;23.30;73.00
64869;DHT22;51349;52.424;10.840;2022-07-23T18:20:40;23.20;74.10
64869;DHT22;51349;52.424;10.840;2022-07-23T18:25:42;23.00;73.90
64869;DHT22;51349;52.424;10.840;2022-07-23T18:30:58;22.70;75.10
64869;DHT22;51349;52.424;10.840;2022-07-23T18:35:59;22.50;74.90
64869;DHT22;51349;52.424;10.840;2022-07-23T18:41:00;22.40;75.40
64869;DHT22;51349;52.424;10.840;2022-07-23T18:46:00;22.30;75.80
64869;DHT22;51349;52.424;10.840;2022-07-23T18:51:02;22.10;76.90
64869;DHT22;51349;52.424;10.840;2022-07-23T18:56:03;22.00;77.30
64869;DHT22;51349;52.424;10.840;2022-07-23T19:01:05;21.80;77.80
64869;DHT22;51349;52.424;10.840;2022-07-23T19:06:06;21.70;78.10
64869;DHT22;51349;52.424;10.840;2022-07-23T19:11:07;21.60;78.90
64869;DHT22;51349;52.424;10.840;2022-07-23T19:16:08;21.30;78.80
64869;DHT22;51349;52.424;10.840;2022-07-23T19:21:08;21.20;79.70
64869;DHT22;51349;52.424;10.840;2022-07-23T19:26:09;21.10;80.10
64869;DHT22;51349;52.424;10.840;2022-07-23T19:31:10;20.80;81.40
64869;DHT22;51349;52.424;10.840;2022-07-23T19:36:11;20.50;81.80
64869;DHT22;51349;52.424;10.840;2022-07-23T19:41:12;20.40;82.30
64869;DHT22;51349;52.424;10.840;2022-07-23T19:46:12;20.30;82.50
64869;DHT22;51349;52.424;10.840;2022-07-23T19:51:13;20.00;83.60
64869;DHT22;51349;52.424;10.840;2022-07-23T19:56:13;19.80;84.20
64869;DHT22;51349;52.424;10.840;2022-07-23T20:01:15;19.50;85.30
64869;DHT22;51349;52.424;10.840;2022-07-23T20:06:16;19.40;86.40
64869;DHT22;51349;52.424;10.840;2022-07-23T20:11:16;19.20;87.00
64869;DHT22;51349;52.424;10.840;2022-07-23T20:16:17;18.90;88.40
64869;DHT22;51349;52.424;10.840;2022-07-23T20:21:18;18.50;89.70
64869;DHT22;51349;52.424;10.840;2022-07-23T20:26:18;18.40;89.80
64869;DHT22;51349;52.424;10.840;2022-07-23T20:31:19;18.40;89.90
64869;DHT22;51349;52.424;10.840;2022-07-23T20:36:20;18.10;90.30
64869;DHT22;51349;52.424;10.840;2022-07-23T20:41:20;17.80;91.10
64869;DHT22;51349;52.424;10.840;2022-07-23T20:46:21;17.40;92.10
64869;DHT22;51349;52.424;10.840;2022-07-23T20:51:22;17.50;91.90
64869;DHT22;51349;52.424;10.840;2022-07-23T20:56:22;17.50;91.90
64869;DHT22;51349;52.424;10.840;2022-07-23T21:01:23;17.40;92.30
64869;DHT22;51349;52.424;10.840;2022-07-23T21:06:24;17.10;93.10
64869;DHT22;51349;52.424;10.840;2022-07-23T21:11:24;17.00;93.20
64869;DHT22;51349;52.424;10.840;2022-07-23T21:16:25;16.70;93.40
64869;DHT22;51349;52.424;10.840;2022-07-23T21:21:26;16.80;93.50
64869;DHT22;51349;52.424;10.840;2022-07-23T21:26:26;16.60;93.60
64869;DHT22;51349;52.424;10.840;2022-07-23T21:31:27;16.50;94.20
64869;DHT22;51349;52.424;10.840;2022-07-23T21:36:28;16.50;94.40
64869;DHT22;51349;52.424;10.840;2022-07-23T21:41:29;16.40;94.80
64869;DHT22;51349;52.424;10.840;2022-07-23T21:46:31;16.20;94.90
64869;DHT22;51349;52.424;10.840;2022-07-23T21:51:34;16.10;95.50
64869;DHT22;51349;52.424;10.840;2022-07-23T21:56:35;15.90;96.00
64869;DHT22;51349;52.424;10.840;2022-07-23T22:01:36;15.80;96.30
64869;DHT22;51349;52.424;10.840;2022-07-23T22:06:37;15.60;97.10
64869;DHT22;51349;52.424;10.840;2022-07-23T22:11:37;15.50;97.40
64869;DHT22;51349;52.424;10.840;2022-07-23T22:16:38;15.50;97.30
64869;DHT22;51349;52.424;10.840;2022-07-23T22:21:39;15.40;97.80
64869;DHT22;51349;52.424;10.840;2022-07-23T22:26:39;15.20;99.20
64869;DHT22;51349;52.424;10.840;2022-07-23T22:31:40;15.10;99.90
64869;DHT22;51349;52.424;10.840;2022-07-23T22:36:41;15.10;99.90
64869;DHT22;51349;52.424;10.840;2022-07-23T22:41:41;15.00;99.90
64869;DHT22;51349;52.424;10.840;2022-07-23T22:46:42;14.90;99.90
64869;DHT22;51349;52.424;10.840;2022-07-23T22:51:42;14.70;99.90
64869;DHT22;51349;52.424;10.840;2022-07-23T22:56:43;14.70;99.90
64869;DHT22;51349;52.424;10.840;2022-07-23T23:01:44;14.50;99.90
64869;DHT22;51349;52.424;10.840;2022-07-23T23:06:44;14.30;99.90
64869;DHT22;51349;52.424;10.840;2022-07-23T23:11:45;14.30;99.90
64869;DHT22;51349;52.424;10.840;2022-07-23T23:16:46;14.30;99.90
64869;DHT22;51349;52.424;10.840;2022-07-23T23:21:46;14.20;99.90
64869;DHT22;51349;52.424;10.840;2022-07-23T23:26:47;14.20;99.90
64869;DHT22;51349;52.424;10.840;2022-07-23T23:31:47;14.00;99.90
64869;DHT22;51349;52.424;10.840;2022-07-23T23:36:48;14.00;99.90
64869;DHT22;51349;52.424;10.840;2022-07-23T23:41:49;13.90;99.90
64869;DHT22;51349;52.424;10.840;2022-07-23T23:46:50;13.80;99.90
64869;DHT22;51349;52.424;10.840;2022-07-23T23:51:50;13.70;99.90
64869;DHT22;51349;52.424;10.840;2022-07-23T23:56:51;13.60;99.90
